sensor_id;sensor_type;location;lat;lon;timestamp;P1;durP1;ratioP1;P2;durP2;ratioP2
19436;SDS011;9854;50.968;4.168;2022-10-31T00:01:34;14.93;;;9.75;;
19436;SDS011;9854;50.968;4.168;2022-10-31T00:04:01;19.02;;;10.30;;
19436;SDS011;9854;50.968;4.168;2022-10-31T00:06:27;19.88;;;10.35;;
19436;SDS011;9854;50.968;4.168;2022-10-31T00:08:54;18.35;;;10.10;;
19436;SDS011;9854;50.968;4.168;2022-10-31T00:11:21;20.08;;;9.77;;
19436;SDS011;9854;50.968;4.168;2022-10-31T00:13:47;16.67;;;8.95;;
19436;SDS011;9854;50.968;4.168;2022-10-31T00:16:13;17.48;;;9.68;;
19436;SDS011;9854;50.968;4.168;2022-10-31T00:18:42;15.77;;;9.48;;
19436;SDS011;9854;50.968;4.168;2022-10-31T00:21:08;14.50;;;8.93;;
19436;SDS011;9854;50.968;4.168;2022-10-31T00:23:34;15.00;;;9.05;;
19436;SDS011;9854;50.968;4.168;2022-10-31T00:26:03;21.27;;;9.10;;
19436;SDS011;9854;50.968;4.168;2022-10-31T00:28:30;18.02;;;9.60;;
19436;SDS011;9854;50.968;4.168;2022-10-31T00:31:03;15.88;;;8.73;;
19436;SDS011;9854;50.968;4.168;2022-10-31T00:33:32;15.00;;;9.25;;
19436;SDS011;9854;50.968;4.168;2022-10-31T00:35:59;14.75;;;9.55;;
19436;SDS011;9854;50.968;4.168;2022-10-31T00:38:25;16.70;;;8.73;;
19436;SDS011;9854;50.968;4.168;2022-10-31T00:40:50;16.58;;;10.18;;
19436;SDS011;9854;50.968;4.168;2022-10-31T00:43:16;14.73;;;9.43;;
19436;SDS011;9854;50.968;4.168;2022-10-31T00:45:42;18.10;;;10.30;;
19436;SDS011;9854;50.968;4.168;2022-10-31T00:48:08;21.25;;;11.05;;
19436;SDS011;9854;50.968;4.168;2022-10-31T00:50:34;21.92;;;11.00;;
19436;SDS011;9854;50.968;4.168;2022-10-31T00:53:00;16.27;;;10.80;;
19436;SDS011;9854;50.968;4.168;2022-10-31T00:55:25;14.63;;;10.30;;
19436;SDS011;9854;50.968;4.168;2022-10-31T00:57:51;21.60;;;11.32;;
19436;SDS011;9854;50.968;4.168;2022-10-31T01:00:17;19.48;;;11.25;;
19436;SDS011;9854;50.968;4.168;2022-10-31T01:02:42;15.27;;;11.13;;
19436;SDS011;9854;50.968;4.168;2022-10-31T01:05:08;18.35;;;10.48;;
19436;SDS011;9854;50.968;4.168;2022-10-31T01:07:37;20.05;;;11.15;;
19436;SDS011;9854;50.968;4.168;2022-10-31T01:10:04;15.57;;;10.13;;
19436;SDS011;9854;50.968;4.168;2022-10-31T01:12:35;22.02;;;10.73;;
19436;SDS011;9854;50.968;4.168;2022-10-31T01:15:04;16.15;;;11.32;;
19436;SDS011;9854;50.968;4.168;2022-10-31T01:17:31;23.20;;;11.20;;
19436;SDS011;9854;50.968;4.168;2022-10-31T01:19:56;26.02;;;12.32;;
19436;SDS011;9854;50.968;4.168;2022-10-31T01:22:22;17.98;;;11.98;;
19436;SDS011;9854;50.968;4.168;2022-10-31T01:24:48;16.73;;;11.85;;
19436;SDS011;9854;50.968;4.168;2022-10-31T01:27:13;21.45;;;11.75;;
19436;SDS011;9854;50.968;4.168;2022-10-31T01:29:39;17.42;;;11.77;;
19436;SDS011;9854;50.968;4.168;2022-10-31T01:32:04;20.38;;;11.13;;
19436;SDS011;9854;50.968;4.168;2022-10-31T01:34:30;19.65;;;11.27;;
19436;SDS011;9854;50.968;4.168;2022-10-31T01:36:56;23.02;;;12.25;;
19436;SDS011;9854;50.968;4.168;2022-10-31T01:39:21;19.38;;;12.23;;
19436;SDS011;9854;50.968;4.168;2022-10-31T01:41:49;18.90;;;11.40;;
19436;SDS011;9854;50.968;4.168;2022-10-31T01:46:46;26.83;;;12.35;;
19436;SDS011;9854;50.968;4.168;2022-10-31T01:49:44;16.67;;;11.38;;
19436;SDS011;9854;50.968;4.168;2022-10-31T01:54:40;19.33;;;11.10;;
19436;SDS011;9854;50.968;4.168;2022-10-31T01:57:11;24.38;;;12.43;;
19436;SDS011;9854;50.968;4.168;2022-10-31T01:59:40;21.73;;;12.13;;
19436;SDS011;9854;50.968;4.168;2022-10-31T02:02:18;20.98;;;12.48;;
19436;SDS011;9854;50.968;4.168;2022-10-31T02:04:44;24.27;;;12.27;;
19436;SDS011;9854;50.968;4.168;2022-10-31T02:07:13;21.67;;;12.93;;
19436;SDS011;9854;50.968;4.168;2022-10-31T02:09:43;26.95;;;13.23;;
19436;SDS011;9854;50.968;4.168;2022-10-31T02:12:11;20.90;;;12.98;;
19436;SDS011;9854;50.968;4.168;2022-10-31T02:14:38;23.90;;;12.02;;
19436;SDS011;9854;50.968;4.168;2022-10-31T02:17:05;21.23;;;12.18;;
19436;SDS011;9854;50.968;4.168;2022-10-31T02:24:44;15.77;;;11.43;;
19436;SDS011;9854;50.968;4.168;2022-10-31T02:30:18;17.55;;;10.65;;
19436;SDS011;9854;50.968;4.168;2022-10-31T02:33:03;15.60;;;10.30;;
19436;SDS011;9854;50.968;4.168;2022-10-31T02:38:46;20.45;;;11.15;;
19436;SDS011;9854;50.968;4.168;2022-10-31T02:46:57;21.60;;;12.10;;
19436;SDS011;9854;50.968;4.168;2022-10-31T02:49:27;15.77;;;10.90;;
19436;SDS011;9854;50.968;4.168;2022-10-31T02:52:02;24.77;;;11.93;;
19436;SDS011;9854;50.968;4.168;2022-10-31T02:54:39;20.95;;;11.25;;
19436;SDS011;9854;50.968;4.168;2022-10-31T02:57:05;20.65;;;11.40;;
19436;SDS011;9854;50.968;4.168;2022-10-31T02:59:33;18.52;;;10.93;;
19436;SDS011;9854;50.968;4.168;2022-10-31T03:10:22;13.25;;;8.57;;
19436;SDS011;9854;50.968;4.168;2022-10-31T03:15:47;11.00;;;8.13;;
19436;SDS011;9854;50.968;4.168;2022-10-31T03:18:18;12.38;;;8.43;;
19436;SDS011;9854;50.968;4.168;2022-10-31T03:20:52;16.02;;;9.10;;
19436;SDS011;9854;50.968;4.168;2022-10-31T03:37:04;9.75;;;8.07;;
19436;SDS011;9854;50.968;4.168;2022-10-31T03:39:34;13.05;;;7.78;;
19436;SDS011;9854;50.968;4.168;2022-10-31T03:44:35;10.40;;;7.40;;
19436;SDS011;9854;50.968;4.168;2022-10-31T03:47:02;8.68;;;7.75;;
19436;SDS011;9854;50.968;4.168;2022-10-31T03:49:29;10.18;;;7.88;;
19436;SDS011;9854;50.968;4.168;2022-10-31T03:55:05;13.50;;;8.88;;
19436;SDS011;9854;50.968;4.168;2022-10-31T03:57:38;10.35;;;8.23;;
19436;SDS011;9854;50.968;4.168;2022-10-31T04:00:16;11.40;;;8.95;;
19436;SDS011;9854;50.968;4.168;2022-10-31T04:02:45;14.00;;;10.30;;
19436;SDS011;9854;50.968;4.168;2022-10-31T04:05:18;14.20;;;9.77;;
19436;SDS011;9854;50.968;4.168;2022-10-31T04:07:46;13.68;;;9.65;;
19436;SDS011;9854;50.968;4.168;2022-10-31T04:10:14;14.70;;;8.95;;
19436;SDS011;9854;50.968;4.168;2022-10-31T04:12:42;7.45;;;5.80;;
19436;SDS011;9854;50.968;4.168;2022-10-31T04:15:13;8.98;;;7.30;;
19436;SDS011;9854;50.968;4.168;2022-10-31T04:17:39;6.03;;;4.45;;
19436;SDS011;9854;50.968;4.168;2022-10-31T04:20:08;5.88;;;5.35;;
19436;SDS011;9854;50.968;4.168;2022-10-31T04:22:34;7.22;;;5.18;;
19436;SDS011;9854;50.968;4.168;2022-10-31T04:25:00;9.15;;;5.63;;
19436;SDS011;9854;50.968;4.168;2022-10-31T04:27:25;11.63;;;7.30;;
19436;SDS011;9854;50.968;4.168;2022-10-31T04:29:51;13.57;;;7.43;;
19436;SDS011;9854;50.968;4.168;2022-10-31T04:32:16;11.80;;;8.48;;
19436;SDS011;9854;50.968;4.168;2022-10-31T04:34:42;18.20;;;8.65;;
19436;SDS011;9854;50.968;4.168;2022-10-31T04:37:08;11.20;;;8.70;;
19436;SDS011;9854;50.968;4.168;2022-10-31T04:39:33;12.38;;;8.43;;
19436;SDS011;9854;50.968;4.168;2022-10-31T04:41:59;12.60;;;8.88;;
19436;SDS011;9854;50.968;4.168;2022-10-31T04:44:24;17.98;;;9.13;;
19436;SDS011;9854;50.968;4.168;2022-10-31T04:46:50;19.13;;;9.27;;
19436;SDS011;9854;50.968;4.168;2022-10-31T04:49:16;10.70;;;9.60;;
19436;SDS011;9854;50.968;4.168;2022-10-31T04:51:41;12.40;;;10.10;;
19436;SDS011;9854;50.968;4.168;2022-10-31T04:54:07;20.23;;;11.10;;
19436;SDS011;9854;50.968;4.168;2022-10-31T04:56:32;19.42;;;11.48;;
19436;SDS011;9854;50.968;4.168;2022-10-31T04:58:58;14.13;;;10.00;;
19436;SDS011;9854;50.968;4.168;2022-10-31T05:01:24;13.73;;;10.90;;
19436;SDS011;9854;50.968;4.168;2022-10-31T05:03:49;14.50;;;10.43;;
19436;SDS011;9854;50.968;4.168;2022-10-31T05:06:15;18.35;;;10.77;;
19436;SDS011;9854;50.968;4.168;2022-10-31T05:08:41;13.30;;;9.98;;
19436;SDS011;9854;50.968;4.168;2022-10-31T05:11:07;11.75;;;10.18;;
19436;SDS011;9854;50.968;4.168;2022-10-31T05:13:32;14.93;;;10.07;;
19436;SDS011;9854;50.968;4.168;2022-10-31T05:15:58;11.75;;;9.50;;
19436;SDS011;9854;50.968;4.168;2022-10-31T05:18:23;15.90;;;9.80;;
19436;SDS011;9854;50.968;4.168;2022-10-31T05:20:49;10.40;;;9.40;;
19436;SDS011;9854;50.968;4.168;2022-10-31T05:23:15;12.30;;;9.00;;
19436;SDS011;9854;50.968;4.168;2022-10-31T05:25:40;18.02;;;10.18;;
19436;SDS011;9854;50.968;4.168;2022-10-31T05:28:06;14.80;;;10.15;;
19436;SDS011;9854;50.968;4.168;2022-10-31T05:30:32;17.52;;;11.77;;
19436;SDS011;9854;50.968;4.168;2022-10-31T05:32:58;13.70;;;10.68;;
19436;SDS011;9854;50.968;4.168;2022-10-31T05:35:25;16.33;;;11.07;;
19436;SDS011;9854;50.968;4.168;2022-10-31T05:37:53;15.52;;;11.95;;
19436;SDS011;9854;50.968;4.168;2022-10-31T05:40:19;15.40;;;11.25;;
19436;SDS011;9854;50.968;4.168;2022-10-31T05:42:46;18.77;;;12.90;;
19436;SDS011;9854;50.968;4.168;2022-10-31T05:45:13;18.77;;;12.70;;
19436;SDS011;9854;50.968;4.168;2022-10-31T05:47:41;20.67;;;12.57;;
19436;SDS011;9854;50.968;4.168;2022-10-31T05:50:07;14.50;;;11.48;;
19436;SDS011;9854;50.968;4.168;2022-10-31T05:52:34;23.05;;;12.20;;
19436;SDS011;9854;50.968;4.168;2022-10-31T05:55:00;21.33;;;12.38;;
19436;SDS011;9854;50.968;4.168;2022-10-31T05:57:25;16.38;;;12.68;;
19436;SDS011;9854;50.968;4.168;2022-10-31T05:59:51;21.70;;;13.32;;
19436;SDS011;9854;50.968;4.168;2022-10-31T06:02:20;24.00;;;13.85;;
19436;SDS011;9854;50.968;4.168;2022-10-31T06:04:46;26.50;;;16.20;;
19436;SDS011;9854;50.968;4.168;2022-10-31T06:07:12;29.75;;;16.83;;
19436;SDS011;9854;50.968;4.168;2022-10-31T06:09:38;25.33;;;16.17;;
19436;SDS011;9854;50.968;4.168;2022-10-31T06:12:04;24.17;;;16.25;;
19436;SDS011;9854;50.968;4.168;2022-10-31T06:14:29;22.02;;;15.68;;
19436;SDS011;9854;50.968;4.168;2022-10-31T06:16:55;30.92;;;14.90;;
19436;SDS011;9854;50.968;4.168;2022-10-31T06:19:21;20.83;;;14.27;;
19436;SDS011;9854;50.968;4.168;2022-10-31T06:21:46;24.15;;;14.85;;
19436;SDS011;9854;50.968;4.168;2022-10-31T06:24:12;26.42;;;15.75;;
19436;SDS011;9854;50.968;4.168;2022-10-31T06:26:38;29.05;;;16.15;;
19436;SDS011;9854;50.968;4.168;2022-10-31T06:29:03;18.70;;;14.13;;
19436;SDS011;9854;50.968;4.168;2022-10-31T06:31:29;24.10;;;14.48;;
19436;SDS011;9854;50.968;4.168;2022-10-31T06:33:55;23.10;;;13.45;;
19436;SDS011;9854;50.968;4.168;2022-10-31T06:36:20;17.65;;;12.90;;
19436;SDS011;9854;50.968;4.168;2022-10-31T06:38:46;17.95;;;13.30;;
19436;SDS011;9854;50.968;4.168;2022-10-31T06:41:11;21.35;;;12.90;;
19436;SDS011;9854;50.968;4.168;2022-10-31T06:43:37;28.08;;;14.30;;
19436;SDS011;9854;50.968;4.168;2022-10-31T06:46:03;32.55;;;15.57;;
19436;SDS011;9854;50.968;4.168;2022-10-31T06:48:29;23.52;;;13.95;;
19436;SDS011;9854;50.968;4.168;2022-10-31T06:51:01;24.65;;;13.43;;
19436;SDS011;9854;50.968;4.168;2022-10-31T06:53:27;22.08;;;13.57;;
19436;SDS011;9854;50.968;4.168;2022-10-31T06:55:56;25.15;;;13.90;;
19436;SDS011;9854;50.968;4.168;2022-10-31T06:58:22;22.40;;;12.82;;
19436;SDS011;9854;50.968;4.168;2022-10-31T07:00:48;16.58;;;12.65;;
19436;SDS011;9854;50.968;4.168;2022-10-31T07:03:14;23.85;;;12.95;;
19436;SDS011;9854;50.968;4.168;2022-10-31T07:05:43;20.88;;;13.27;;
19436;SDS011;9854;50.968;4.168;2022-10-31T07:08:13;24.00;;;12.98;;
19436;SDS011;9854;50.968;4.168;2022-10-31T07:10:40;22.73;;;13.05;;
19436;SDS011;9854;50.968;4.168;2022-10-31T07:13:14;23.63;;;13.15;;
19436;SDS011;9854;50.968;4.168;2022-10-31T07:15:40;20.42;;;12.52;;
19436;SDS011;9854;50.968;4.168;2022-10-31T07:18:08;22.63;;;12.90;;
19436;SDS011;9854;50.968;4.168;2022-10-31T07:20:35;26.45;;;13.75;;
19436;SDS011;9854;50.968;4.168;2022-10-31T07:23:00;21.73;;;13.00;;
19436;SDS011;9854;50.968;4.168;2022-10-31T07:25:26;24.30;;;13.02;;
19436;SDS011;9854;50.968;4.168;2022-10-31T07:27:52;26.05;;;13.27;;
19436;SDS011;9854;50.968;4.168;2022-10-31T07:30:18;21.35;;;12.65;;
19436;SDS011;9854;50.968;4.168;2022-10-31T07:32:44;22.63;;;13.55;;
19436;SDS011;9854;50.968;4.168;2022-10-31T07:35:12;24.48;;;13.73;;
19436;SDS011;9854;50.968;4.168;2022-10-31T07:37:39;22.42;;;13.27;;
19436;SDS011;9854;50.968;4.168;2022-10-31T07:40:06;26.13;;;13.70;;
19436;SDS011;9854;50.968;4.168;2022-10-31T07:42:36;23.80;;;13.68;;
19436;SDS011;9854;50.968;4.168;2022-10-31T07:45:02;20.50;;;12.68;;
19436;SDS011;9854;50.968;4.168;2022-10-31T07:47:29;20.30;;;12.85;;
19436;SDS011;9854;50.968;4.168;2022-10-31T07:49:54;19.02;;;12.27;;
19436;SDS011;9854;50.968;4.168;2022-10-31T07:52:20;18.35;;;12.48;;
19436;SDS011;9854;50.968;4.168;2022-10-31T07:54:45;23.92;;;13.55;;
19436;SDS011;9854;50.968;4.168;2022-10-31T07:57:11;20.50;;;13.23;;
19436;SDS011;9854;50.968;4.168;2022-10-31T07:59:36;21.63;;;12.93;;
19436;SDS011;9854;50.968;4.168;2022-10-31T08:02:02;25.63;;;12.48;;
19436;SDS011;9854;50.968;4.168;2022-10-31T08:04:28;22.95;;;12.35;;
19436;SDS011;9854;50.968;4.168;2022-10-31T08:06:53;25.02;;;13.32;;
19436;SDS011;9854;50.968;4.168;2022-10-31T08:09:19;20.40;;;12.43;;
19436;SDS011;9854;50.968;4.168;2022-10-31T08:11:45;21.75;;;13.20;;
19436;SDS011;9854;50.968;4.168;2022-10-31T08:14:10;22.92;;;12.90;;
19436;SDS011;9854;50.968;4.168;2022-10-31T08:16:36;19.20;;;12.10;;
19436;SDS011;9854;50.968;4.168;2022-10-31T08:19:01;31.85;;;13.50;;
19436;SDS011;9854;50.968;4.168;2022-10-31T08:21:27;27.02;;;13.13;;
19436;SDS011;9854;50.968;4.168;2022-10-31T08:23:52;22.10;;;12.95;;
19436;SDS011;9854;50.968;4.168;2022-10-31T08:26:18;22.23;;;12.95;;
19436;SDS011;9854;50.968;4.168;2022-10-31T08:28:44;25.95;;;12.93;;
19436;SDS011;9854;50.968;4.168;2022-10-31T08:31:09;27.80;;;13.30;;
19436;SDS011;9854;50.968;4.168;2022-10-31T08:33:35;20.77;;;12.63;;
19436;SDS011;9854;50.968;4.168;2022-10-31T08:36:00;25.05;;;12.60;;
19436;SDS011;9854;50.968;4.168;2022-10-31T08:38:26;21.20;;;13.40;;
19436;SDS011;9854;50.968;4.168;2022-10-31T08:40:52;23.63;;;12.77;;
19436;SDS011;9854;50.968;4.168;2022-10-31T08:43:18;21.75;;;13.30;;
19436;SDS011;9854;50.968;4.168;2022-10-31T08:45:44;21.20;;;12.45;;
19436;SDS011;9854;50.968;4.168;2022-10-31T08:48:13;23.85;;;12.65;;
19436;SDS011;9854;50.968;4.168;2022-10-31T08:50:40;20.10;;;12.93;;
19436;SDS011;9854;50.968;4.168;2022-10-31T08:53:09;26.92;;;12.43;;
19436;SDS011;9854;50.968;4.168;2022-10-31T08:55:38;26.15;;;13.32;;
19436;SDS011;9854;50.968;4.168;2022-10-31T08:58:05;18.75;;;12.07;;
19436;SDS011;9854;50.968;4.168;2022-10-31T09:00:34;26.13;;;12.85;;
19436;SDS011;9854;50.968;4.168;2022-10-31T09:03:01;28.75;;;13.35;;
19436;SDS011;9854;50.968;4.168;2022-10-31T09:05:28;20.23;;;11.93;;
19436;SDS011;9854;50.968;4.168;2022-10-31T09:07:57;22.55;;;13.32;;
19436;SDS011;9854;50.968;4.168;2022-10-31T09:10:24;21.48;;;13.25;;
19436;SDS011;9854;50.968;4.168;2022-10-31T09:12:57;21.08;;;12.77;;
19436;SDS011;9854;50.968;4.168;2022-10-31T09:15:33;23.02;;;14.00;;
19436;SDS011;9854;50.968;4.168;2022-10-31T09:18:01;30.95;;;14.98;;
19436;SDS011;9854;50.968;4.168;2022-10-31T09:20:28;23.67;;;13.80;;
19436;SDS011;9854;50.968;4.168;2022-10-31T09:22:57;26.25;;;13.93;;
19436;SDS011;9854;50.968;4.168;2022-10-31T09:25:26;24.45;;;14.13;;
19436;SDS011;9854;50.968;4.168;2022-10-31T09:27:56;21.80;;;14.07;;
19436;SDS011;9854;50.968;4.168;2022-10-31T09:30:23;29.20;;;15.23;;
19436;SDS011;9854;50.968;4.168;2022-10-31T09:32:56;30.25;;;15.23;;
19436;SDS011;9854;50.968;4.168;2022-10-31T09:35:27;23.15;;;14.43;;
19436;SDS011;9854;50.968;4.168;2022-10-31T09:38:00;38.10;;;14.93;;
19436;SDS011;9854;50.968;4.168;2022-10-31T09:40:34;20.77;;;14.63;;
19436;SDS011;9854;50.968;4.168;2022-10-31T09:43:10;20.02;;;14.20;;
19436;SDS011;9854;50.968;4.168;2022-10-31T09:45:53;30.52;;;16.77;;
19436;SDS011;9854;50.968;4.168;2022-10-31T09:48:35;23.90;;;14.60;;
19436;SDS011;9854;50.968;4.168;2022-10-31T09:51:09;25.38;;;14.55;;
19436;SDS011;9854;50.968;4.168;2022-10-31T09:53:39;30.67;;;14.35;;
19436;SDS011;9854;50.968;4.168;2022-10-31T09:56:28;24.50;;;13.82;;
19436;SDS011;9854;50.968;4.168;2022-10-31T09:58:57;24.42;;;15.02;;
19436;SDS011;9854;50.968;4.168;2022-10-31T10:06:56;18.38;;;13.32;;
19436;SDS011;9854;50.968;4.168;2022-10-31T10:09:26;20.70;;;14.30;;
19436;SDS011;9854;50.968;4.168;2022-10-31T10:12:08;26.33;;;14.65;;
19436;SDS011;9854;50.968;4.168;2022-10-31T10:25:32;16.58;;;13.45;;
19436;SDS011;9854;50.968;4.168;2022-10-31T10:28:08;20.80;;;14.57;;
19436;SDS011;9854;50.968;4.168;2022-10-31T10:30:46;27.65;;;14.65;;
19436;SDS011;9854;50.968;4.168;2022-10-31T10:33:22;18.88;;;13.50;;
19436;SDS011;9854;50.968;4.168;2022-10-31T10:35:54;24.10;;;14.38;;
19436;SDS011;9854;50.968;4.168;2022-10-31T10:38:32;22.48;;;13.93;;
19436;SDS011;9854;50.968;4.168;2022-10-31T10:41:17;27.42;;;15.02;;
19436;SDS011;9854;50.968;4.168;2022-10-31T10:43:45;27.75;;;14.23;;
19436;SDS011;9854;50.968;4.168;2022-10-31T10:46:17;27.38;;;15.50;;
19436;SDS011;9854;50.968;4.168;2022-10-31T10:59:53;17.52;;;13.27;;
19436;SDS011;9854;50.968;4.168;2022-10-31T11:02:20;23.23;;;12.45;;
19436;SDS011;9854;50.968;4.168;2022-10-31T11:04:53;16.83;;;12.30;;
19436;SDS011;9854;50.968;4.168;2022-10-31T11:07:20;16.48;;;12.35;;
19436;SDS011;9854;50.968;4.168;2022-10-31T11:09:46;21.45;;;12.88;;
19436;SDS011;9854;50.968;4.168;2022-10-31T11:12:22;16.60;;;11.43;;
19436;SDS011;9854;50.968;4.168;2022-10-31T11:14:57;24.73;;;13.00;;
19436;SDS011;9854;50.968;4.168;2022-10-31T11:17:28;20.85;;;12.48;;
19436;SDS011;9854;50.968;4.168;2022-10-31T11:20:00;18.98;;;12.50;;
19436;SDS011;9854;50.968;4.168;2022-10-31T11:22:29;18.58;;;12.23;;
19436;SDS011;9854;50.968;4.168;2022-10-31T11:24:55;21.35;;;12.40;;
19436;SDS011;9854;50.968;4.168;2022-10-31T11:27:22;23.70;;;12.52;;
19436;SDS011;9854;50.968;4.168;2022-10-31T11:29:49;16.58;;;12.05;;
19436;SDS011;9854;50.968;4.168;2022-10-31T11:32:25;17.92;;;12.75;;
19436;SDS011;9854;50.968;4.168;2022-10-31T11:34:53;24.52;;;12.55;;
19436;SDS011;9854;50.968;4.168;2022-10-31T11:37:23;17.27;;;12.90;;
19436;SDS011;9854;50.968;4.168;2022-10-31T11:39:55;22.58;;;13.63;;
19436;SDS011;9854;50.968;4.168;2022-10-31T11:42:26;22.13;;;13.18;;
19436;SDS011;9854;50.968;4.168;2022-10-31T11:44:54;17.70;;;12.48;;
19436;SDS011;9854;50.968;4.168;2022-10-31T11:47:30;22.10;;;13.52;;
19436;SDS011;9854;50.968;4.168;2022-10-31T11:49:57;23.92;;;13.80;;
19436;SDS011;9854;50.968;4.168;2022-10-31T11:52:36;23.70;;;13.50;;
19436;SDS011;9854;50.968;4.168;2022-10-31T11:55:25;23.23;;;13.35;;
19436;SDS011;9854;50.968;4.168;2022-10-31T11:57:56;17.85;;;13.07;;
19436;SDS011;9854;50.968;4.168;2022-10-31T12:00:23;25.00;;;13.15;;
19436;SDS011;9854;50.968;4.168;2022-10-31T12:05:49;21.38;;;12.05;;
19436;SDS011;9854;50.968;4.168;2022-10-31T12:08:17;19.40;;;12.60;;
19436;SDS011;9854;50.968;4.168;2022-10-31T12:15:44;27.33;;;12.70;;
19436;SDS011;9854;50.968;4.168;2022-10-31T12:45:34;25.02;;;11.65;;
19436;SDS011;9854;50.968;4.168;2022-10-31T12:51:00;28.75;;;12.07;;
19436;SDS011;9854;50.968;4.168;2022-10-31T12:56:38;22.83;;;11.43;;
19436;SDS011;9854;50.968;4.168;2022-10-31T12:59:36;24.92;;;11.57;;
19436;SDS011;9854;50.968;4.168;2022-10-31T13:02:23;20.27;;;11.65;;
19436;SDS011;9854;50.968;4.168;2022-10-31T13:07:43;16.88;;;10.07;;
19436;SDS011;9854;50.968;4.168;2022-10-31T13:13:00;24.20;;;11.68;;
19436;SDS011;9854;50.968;4.168;2022-10-31T13:15:38;22.50;;;10.90;;
19436;SDS011;9854;50.968;4.168;2022-10-31T13:18:21;18.35;;;10.73;;
19436;SDS011;9854;50.968;4.168;2022-10-31T13:20:54;18.17;;;10.57;;
19436;SDS011;9854;50.968;4.168;2022-10-31T13:25:53;17.20;;;9.93;;
19436;SDS011;9854;50.968;4.168;2022-10-31T13:28:26;20.33;;;10.80;;
19436;SDS011;9854;50.968;4.168;2022-10-31T13:31:13;24.48;;;9.82;;
19436;SDS011;9854;50.968;4.168;2022-10-31T13:33:41;16.92;;;8.88;;
19436;SDS011;9854;50.968;4.168;2022-10-31T13:39:18;19.02;;;8.57;;
19436;SDS011;9854;50.968;4.168;2022-10-31T13:42:01;24.58;;;9.35;;
19436;SDS011;9854;50.968;4.168;2022-10-31T13:45:22;17.50;;;8.52;;
19436;SDS011;9854;50.968;4.168;2022-10-31T13:50:39;20.83;;;8.88;;
19436;SDS011;9854;50.968;4.168;2022-10-31T13:53:11;14.98;;;8.88;;
19436;SDS011;9854;50.968;4.168;2022-10-31T13:55:44;17.45;;;8.20;;
19436;SDS011;9854;50.968;4.168;2022-10-31T13:58:27;23.63;;;8.37;;
19436;SDS011;9854;50.968;4.168;2022-10-31T14:01:27;15.77;;;8.05;;
19436;SDS011;9854;50.968;4.168;2022-10-31T14:04:03;21.73;;;7.75;;
19436;SDS011;9854;50.968;4.168;2022-10-31T14:06:47;20.02;;;8.13;;
19436;SDS011;9854;50.968;4.168;2022-10-31T14:11:47;25.52;;;7.60;;
19436;SDS011;9854;50.968;4.168;2022-10-31T14:14:15;15.98;;;7.13;;
19436;SDS011;9854;50.968;4.168;2022-10-31T14:16:42;13.98;;;7.03;;
19436;SDS011;9854;50.968;4.168;2022-10-31T14:19:17;14.40;;;7.60;;
19436;SDS011;9854;50.968;4.168;2022-10-31T14:21:45;23.48;;;8.27;;
19436;SDS011;9854;50.968;4.168;2022-10-31T14:26:54;18.27;;;7.68;;
19436;SDS011;9854;50.968;4.168;2022-10-31T14:29:31;19.65;;;7.32;;
19436;SDS011;9854;50.968;4.168;2022-10-31T14:40:22;18.90;;;7.40;;
19436;SDS011;9854;50.968;4.168;2022-10-31T14:45:29;23.80;;;7.78;;
19436;SDS011;9854;50.968;4.168;2022-10-31T14:53:05;27.02;;;7.57;;
19436;SDS011;9854;50.968;4.168;2022-10-31T14:55:34;31.20;;;8.13;;
19436;SDS011;9854;50.968;4.168;2022-10-31T14:58:05;20.83;;;8.48;;
19436;SDS011;9854;50.968;4.168;2022-10-31T15:00:33;20.23;;;7.38;;
19436;SDS011;9854;50.968;4.168;2022-10-31T15:05:35;13.93;;;7.00;;
19436;SDS011;9854;50.968;4.168;2022-10-31T15:08:13;21.42;;;7.70;;
19436;SDS011;9854;50.968;4.168;2022-10-31T15:11:02;27.92;;;8.60;;
19436;SDS011;9854;50.968;4.168;2022-10-31T15:13:34;18.15;;;7.10;;
19436;SDS011;9854;50.968;4.168;2022-10-31T15:15:59;20.27;;;7.50;;
19436;SDS011;9854;50.968;4.168;2022-10-31T15:18:26;19.33;;;7.25;;
19436;SDS011;9854;50.968;4.168;2022-10-31T15:20:53;18.98;;;7.25;;
19436;SDS011;9854;50.968;4.168;2022-10-31T15:23:25;20.48;;;8.20;;
19436;SDS011;9854;50.968;4.168;2022-10-31T15:26:03;17.75;;;7.32;;
19436;SDS011;9854;50.968;4.168;2022-10-31T15:28:30;17.95;;;7.13;;
19436;SDS011;9854;50.968;4.168;2022-10-31T15:31:00;24.33;;;7.15;;
19436;SDS011;9854;50.968;4.168;2022-10-31T15:33:28;20.15;;;7.35;;
19436;SDS011;9854;50.968;4.168;2022-10-31T15:35:56;27.25;;;6.95;;
19436;SDS011;9854;50.968;4.168;2022-10-31T15:38:23;13.35;;;5.82;;
19436;SDS011;9854;50.968;4.168;2022-10-31T15:40:54;14.85;;;6.13;;
19436;SDS011;9854;50.968;4.168;2022-10-31T15:43:36;14.93;;;6.85;;
19436;SDS011;9854;50.968;4.168;2022-10-31T15:46:06;8.43;;;5.72;;
19436;SDS011;9854;50.968;4.168;2022-10-31T15:48:33;22.10;;;6.25;;
19436;SDS011;9854;50.968;4.168;2022-10-31T15:51:00;13.80;;;5.30;;
19436;SDS011;9854;50.968;4.168;2022-10-31T15:53:31;19.33;;;6.88;;
19436;SDS011;9854;50.968;4.168;2022-10-31T15:55:59;24.30;;;6.68;;
19436;SDS011;9854;50.968;4.168;2022-10-31T15:58:27;18.45;;;6.30;;
19436;SDS011;9854;50.968;4.168;2022-10-31T16:00:58;18.60;;;6.93;;
19436;SDS011;9854;50.968;4.168;2022-10-31T16:03:29;16.95;;;7.28;;
19436;SDS011;9854;50.968;4.168;2022-10-31T16:05:57;22.70;;;8.23;;
19436;SDS011;9854;50.968;4.168;2022-10-31T16:08:26;20.38;;;6.95;;
19436;SDS011;9854;50.968;4.168;2022-10-31T16:13:37;15.57;;;7.18;;
19436;SDS011;9854;50.968;4.168;2022-10-31T16:16:15;23.17;;;7.32;;
19436;SDS011;9854;50.968;4.168;2022-10-31T16:18:42;21.55;;;7.68;;
19436;SDS011;9854;50.968;4.168;2022-10-31T16:21:08;21.42;;;8.15;;
19436;SDS011;9854;50.968;4.168;2022-10-31T16:23:35;23.73;;;8.15;;
19436;SDS011;9854;50.968;4.168;2022-10-31T16:26:06;16.20;;;8.27;;
19436;SDS011;9854;50.968;4.168;2022-10-31T16:28:33;17.40;;;8.00;;
19436;SDS011;9854;50.968;4.168;2022-10-31T16:30:59;20.58;;;8.60;;
19436;SDS011;9854;50.968;4.168;2022-10-31T16:33:32;18.95;;;8.23;;
19436;SDS011;9854;50.968;4.168;2022-10-31T16:36:01;20.83;;;8.07;;
19436;SDS011;9854;50.968;4.168;2022-10-31T16:38:52;20.60;;;8.93;;
19436;SDS011;9854;50.968;4.168;2022-10-31T16:41:18;30.23;;;9.15;;
19436;SDS011;9854;50.968;4.168;2022-10-31T16:43:44;16.38;;;8.80;;
19436;SDS011;9854;50.968;4.168;2022-10-31T16:46:12;20.23;;;9.13;;
19436;SDS011;9854;50.968;4.168;2022-10-31T16:48:43;15.48;;;9.02;;
19436;SDS011;9854;50.968;4.168;2022-10-31T16:51:08;26.92;;;9.63;;
19436;SDS011;9854;50.968;4.168;2022-10-31T16:53:34;21.73;;;9.85;;
19436;SDS011;9854;50.968;4.168;2022-10-31T16:56:02;19.38;;;9.52;;
19436;SDS011;9854;50.968;4.168;2022-10-31T16:58:29;16.30;;;10.15;;
19436;SDS011;9854;50.968;4.168;2022-10-31T17:00:57;22.58;;;10.27;;
19436;SDS011;9854;50.968;4.168;2022-10-31T17:03:24;24.52;;;10.88;;
19436;SDS011;9854;50.968;4.168;2022-10-31T17:05:50;19.50;;;9.85;;
19436;SDS011;9854;50.968;4.168;2022-10-31T17:08:15;21.90;;;9.95;;
19436;SDS011;9854;50.968;4.168;2022-10-31T17:10:41;24.23;;;11.48;;
19436;SDS011;9854;50.968;4.168;2022-10-31T17:13:13;28.60;;;10.38;;
19436;SDS011;9854;50.968;4.168;2022-10-31T17:15:44;27.90;;;11.57;;
19436;SDS011;9854;50.968;4.168;2022-10-31T17:18:13;22.00;;;10.25;;
19436;SDS011;9854;50.968;4.168;2022-10-31T17:20:40;24.00;;;10.07;;
19436;SDS011;9854;50.968;4.168;2022-10-31T17:23:11;20.83;;;9.88;;
19436;SDS011;9854;50.968;4.168;2022-10-31T17:25:39;21.73;;;9.95;;
19436;SDS011;9854;50.968;4.168;2022-10-31T17:28:05;21.90;;;10.00;;
19436;SDS011;9854;50.968;4.168;2022-10-31T17:30:31;23.23;;;9.73;;
19436;SDS011;9854;50.968;4.168;2022-10-31T17:32:58;22.02;;;9.88;;